createdAt,value
2023-05-17T00:00:08.884Z,31.47
2023-05-17T00:01:08.928Z,31.54
2023-05-17T00:02:08.986Z,31.50
2023-05-17T00:03:09.056Z,31.50
2023-05-17T00:04:09.149Z,31.50
2023-05-17T00:05:09.087Z,31.48
2023-05-17T00:06:09.153Z,31.50
2023-05-17T00:07:09.210Z,31.49
2023-05-17T00:08:09.238Z,31.46
2023-05-17T00:09:09.267Z,31.50
2023-05-17T00:10:09.309Z,31.50
2023-05-17T00:11:09.349Z,31.51
2023-05-17T00:12:09.420Z,31.52
2023-05-17T00:13:09.476Z,31.47
2023-05-17T00:14:09.514Z,31.53
2023-05-17T00:15:09.544Z,31.53
2023-05-17T00:16:09.580Z,31.52
2023-05-17T00:17:09.616Z,31.52
2023-05-17T00:18:09.768Z,31.46
2023-05-17T00:19:09.881Z,31.47
2023-05-17T00:20:09.723Z,31.50
2023-05-17T00:21:09.787Z,31.48
2023-05-17T00:22:09.839Z,31.47
2023-05-17T00:23:09.859Z,31.48
2023-05-17T00:24:09.860Z,31.50
2023-05-17T00:25:09.937Z,31.50
2023-05-17T00:26:09.969Z,31.46
2023-05-17T00:27:10.011Z,31.46
2023-05-17T00:28:10.001Z,31.46
2023-05-17T00:29:10.072Z,31.48
2023-05-17T00:30:10.131Z,31.46
2023-05-17T00:31:10.341Z,31.51
2023-05-17T00:32:10.256Z,31.47
2023-05-17T00:33:10.268Z,31.51
2023-05-17T00:34:10.304Z,31.46
2023-05-17T00:35:10.371Z,31.50
2023-05-17T00:36:10.417Z,31.51
2023-05-17T00:37:10.414Z,31.48
2023-05-17T00:38:10.470Z,31.47
2023-05-17T00:39:10.501Z,31.48
2023-05-17T00:40:10.533Z,31.43
2023-05-17T00:41:10.613Z,31.48
2023-05-17T00:42:10.644Z,31.48
2023-05-17T00:43:10.671Z,31.47
2023-05-17T00:44:10.747Z,31.50
2023-05-17T00:45:10.795Z,31.51
2023-05-17T00:46:10.926Z,31.47
2023-05-17T00:47:11.037Z,31.51
2023-05-17T00:48:11.096Z,31.50
2023-05-17T00:49:11.000Z,31.47
2023-05-17T00:50:11.033Z,31.47
2023-05-17T00:51:11.108Z,31.51
2023-05-17T00:52:11.130Z,31.46
2023-05-17T00:53:11.174Z,31.47
2023-05-17T00:54:11.199Z,31.47
2023-05-17T00:55:11.256Z,31.46
2023-05-17T00:56:11.293Z,31.50
2023-05-17T00:57:11.340Z,31.49
2023-05-17T00:58:11.413Z,31.50
2023-05-17T00:59:11.455Z,31.50
2023-05-17T01:00:11.513Z,31.53
2023-05-17T01:01:11.574Z,31.46
2023-05-17T01:02:11.608Z,31.46
2023-05-17T01:03:12.002Z,31.50
2023-05-17T01:04:11.755Z,31.43
2023-05-17T01:05:11.759Z,31.44
2023-05-17T01:06:11.772Z,31.52
2023-05-17T01:07:11.809Z,31.51
2023-05-17T01:08:11.855Z,31.51
2023-05-17T01:09:11.894Z,31.46
2023-05-17T01:10:11.977Z,31.44
2023-05-17T01:11:12.002Z,31.46
2023-05-17T01:12:12.059Z,31.47
2023-05-17T01:13:12.104Z,31.46
2023-05-17T01:14:12.126Z,31.46
2023-05-17T01:15:12.198Z,31.47
2023-05-17T01:16:12.250Z,31.47
2023-05-17T01:17:12.287Z,31.46
2023-05-17T01:18:12.430Z,31.48
2023-05-17T01:19:12.455Z,31.44
2023-05-17T01:20:12.592Z,31.47
2023-05-17T01:21:12.489Z,31.49
2023-05-17T01:22:12.574Z,31.42
2023-05-17T01:23:12.612Z,31.47
2023-05-17T01:24:12.663Z,31.48
2023-05-17T01:25:12.703Z,31.47
2023-05-17T01:26:12.748Z,31.46
2023-05-17T01:27:12.799Z,31.48
2023-05-17T01:28:12.856Z,31.49
2023-05-17T01:29:12.956Z,31.50
2023-05-17T01:30:12.962Z,31.48
2023-05-17T01:31:13.016Z,31.44
2023-05-17T01:32:13.049Z,31.46
2023-05-17T01:33:13.214Z,31.48
2023-05-17T01:34:13.173Z,31.52
2023-05-17T01:35:13.263Z,31.43
2023-05-17T01:36:13.280Z,31.46
2023-05-17T01:37:13.317Z,31.43
2023-05-17T01:38:13.356Z,31.48
2023-05-17T01:39:13.442Z,31.49
2023-05-17T01:40:13.470Z,31.48
2023-05-17T01:41:13.515Z,31.46
2023-05-17T01:42:13.589Z,31.45
2023-05-17T01:43:13.623Z,31.44
2023-05-17T01:44:13.657Z,31.48
2023-05-17T01:45:13.723Z,31.51
2023-05-17T01:46:13.784Z,31.48
2023-05-17T01:47:13.792Z,31.47
2023-05-17T01:48:13.928Z,31.47
2023-05-17T01:49:13.916Z,31.52
2023-05-17T01:50:13.973Z,31.48
2023-05-17T01:51:14.009Z,31.43
2023-05-17T01:52:14.074Z,31.43
2023-05-17T01:53:14.094Z,31.49
2023-05-17T01:54:14.181Z,31.49
2023-05-17T01:55:14.202Z,31.45
2023-05-17T01:56:14.249Z,31.49
2023-05-17T01:57:14.324Z,31.46
2023-05-17T01:58:14.352Z,31.47
2023-05-17T01:59:14.409Z,31.47
2023-05-17T02:00:14.474Z,31.49
2023-05-17T02:01:14.525Z,31.47
2023-05-17T02:02:14.611Z,31.48
2023-05-17T02:03:14.688Z,31.47
2023-05-17T02:04:14.753Z,31.47
2023-05-17T02:05:14.839Z,31.40
2023-05-17T02:06:14.767Z,31.44
2023-05-17T02:07:15.106Z,31.44
2023-05-17T02:08:14.884Z,31.43
2023-05-17T02:09:14.919Z,31.45
2023-05-17T02:10:14.979Z,31.47
2023-05-17T02:11:15.030Z,31.45
2023-05-17T02:12:15.115Z,31.47
2023-05-17T02:13:15.170Z,31.52
2023-05-17T02:14:15.235Z,31.48
2023-05-17T02:15:15.251Z,31.48
2023-05-17T02:16:15.334Z,31.47
2023-05-17T02:17:15.419Z,31.48
2023-05-17T02:18:15.483Z,31.44
2023-05-17T02:19:15.520Z,31.47
2023-05-17T02:20:15.608Z,31.48
2023-05-17T02:21:15.595Z,31.47
2023-05-17T02:22:15.633Z,31.47
2023-05-17T02:23:15.872Z,31.45
2023-05-17T02:24:15.756Z,31.51
2023-05-17T02:25:15.791Z,31.49
2023-05-17T02:26:15.865Z,31.45
2023-05-17T02:27:15.918Z,31.47
2023-05-17T02:28:15.990Z,31.45
2023-05-17T02:29:16.035Z,31.48
2023-05-17T02:30:17.990Z,31.47
2023-05-17T02:31:16.173Z,31.45
2023-05-17T02:32:16.215Z,31.49
2023-05-17T02:33:16.346Z,31.49
2023-05-17T02:34:16.326Z,31.49
2023-05-17T02:35:16.371Z,31.48
2023-05-17T02:36:16.477Z,31.45
2023-05-17T02:37:16.500Z,31.44
2023-05-17T02:38:16.604Z,31.48
2023-05-17T02:39:16.698Z,31.46
2023-05-17T02:40:16.663Z,31.45
2023-05-17T02:41:16.733Z,31.49
2023-05-17T02:42:16.794Z,31.49
2023-05-17T02:43:16.865Z,31.45
2023-05-17T02:44:16.934Z,31.46
2023-05-17T02:45:16.973Z,31.49
2023-05-17T02:46:17.045Z,31.48
2023-05-17T02:47:17.155Z,31.50
2023-05-17T02:48:17.161Z,31.44
2023-05-17T02:49:17.174Z,31.46
2023-05-17T02:50:17.256Z,31.45
2023-05-17T02:51:17.327Z,31.48
2023-05-17T02:52:17.379Z,31.47
2023-05-17T02:53:17.465Z,31.50
2023-05-17T02:54:17.502Z,31.46
2023-05-17T02:55:17.648Z,31.42
2023-05-17T02:56:17.681Z,31.50
2023-05-17T02:57:17.689Z,31.45
2023-05-17T02:58:17.800Z,31.50
2023-05-17T02:59:17.813Z,31.43
2023-05-17T03:00:17.880Z,31.48
2023-05-17T03:01:17.937Z,31.48
2023-05-17T03:02:18.057Z,31.49
2023-05-17T03:03:18.222Z,31.49
2023-05-17T03:04:18.139Z,31.50
2023-05-17T03:05:18.190Z,31.52
2023-05-17T03:06:18.223Z,31.48
2023-05-17T03:07:18.287Z,31.46
2023-05-17T03:08:18.362Z,31.48
2023-05-17T03:09:18.411Z,31.48
2023-05-17T03:10:18.474Z,31.46
2023-05-17T03:11:18.597Z,31.49
2023-05-17T03:12:18.593Z,31.45
2023-05-17T03:13:18.672Z,31.49
2023-05-17T03:14:18.712Z,31.52
2023-05-17T03:15:18.760Z,31.54
2023-05-17T03:16:18.841Z,31.51
2023-05-17T03:17:18.897Z,31.48
2023-05-17T03:18:18.989Z,31.50
2023-05-17T03:19:19.092Z,31.52
2023-05-17T03:20:19.107Z,31.49
2023-05-17T03:21:19.144Z,31.48
2023-05-17T03:22:19.223Z,31.48
2023-05-17T03:23:19.280Z,31.43
2023-05-17T03:24:19.314Z,31.49
2023-05-17T03:25:19.402Z,31.45
2023-05-17T03:26:19.436Z,31.50
2023-05-17T03:27:19.635Z,31.49
2023-05-17T03:28:19.607Z,31.53
2023-05-17T03:29:19.641Z,31.48
2023-05-17T03:30:19.910Z,31.50
2023-05-17T03:31:19.757Z,31.49
2023-05-17T03:32:19.853Z,31.46
2023-05-17T03:33:19.961Z,31.50
2023-05-17T03:34:19.934Z,31.48
2023-05-17T03:35:20.016Z,31.48
2023-05-17T03:36:20.061Z,31.49
2023-05-17T03:37:20.175Z,31.46
2023-05-17T03:38:20.190Z,31.56
2023-05-17T03:39:20.278Z,31.49
2023-05-17T03:40:20.333Z,31.49
2023-05-17T03:41:20.380Z,31.50
2023-05-17T03:42:20.429Z,31.49
2023-05-17T03:43:20.694Z,31.47
2023-05-17T03:44:20.581Z,31.43
2023-05-17T03:45:20.580Z,31.47
2023-05-17T03:46:20.663Z,31.51
2023-05-17T03:47:20.727Z,31.47
2023-05-17T03:48:20.829Z,31.50
2023-05-17T03:49:20.880Z,31.48
2023-05-17T03:50:20.906Z,31.48
2023-05-17T03:51:20.988Z,31.46
2023-05-17T03:52:21.019Z,31.45
2023-05-17T03:53:21.127Z,31.45
2023-05-17T03:54:21.139Z,31.48
2023-05-17T03:55:21.229Z,31.47
2023-05-17T03:56:21.251Z,31.47
2023-05-17T03:57:21.366Z,31.45
2023-05-17T03:58:21.413Z,31.46
2023-05-17T03:59:21.581Z,31.50
2023-05-17T04:00:21.528Z,31.46
2023-05-17T04:01:21.606Z,31.46
2023-05-17T04:02:21.726Z,31.43
2023-05-17T04:03:21.676Z,31.43
2023-05-17T04:04:21.818Z,31.30
2023-05-17T04:05:21.922Z,31.18
2023-05-17T04:06:21.882Z,31.09
2023-05-17T04:07:21.946Z,30.99
2023-05-17T04:08:21.947Z,30.92
2023-05-17T04:09:22.023Z,30.84
2023-05-17T04:10:22.060Z,30.87
2023-05-17T04:11:22.072Z,30.79
2023-05-17T04:12:22.086Z,30.56
2023-05-17T04:13:22.076Z,30.55
2023-05-17T04:14:22.191Z,30.37
2023-05-17T04:15:22.132Z,30.42
2023-05-17T04:16:22.111Z,30.42
2023-05-17T04:17:22.207Z,30.40
2023-05-17T04:18:22.242Z,30.36
2023-05-17T04:19:22.277Z,30.35
2023-05-17T04:20:22.208Z,30.35
2023-05-17T04:21:22.196Z,30.27
2023-05-17T04:22:22.212Z,30.27
2023-05-17T04:23:22.208Z,30.25
2023-05-17T04:24:22.202Z,30.32
2023-05-17T04:25:22.211Z,30.29
2023-05-17T04:26:22.293Z,30.09
2023-05-17T04:27:22.242Z,30.14
2023-05-17T04:28:22.275Z,30.22
2023-05-17T04:29:22.302Z,30.10
2023-05-17T04:30:22.273Z,30.14
2023-05-17T04:31:22.387Z,30.12
2023-05-17T04:32:22.336Z,30.24
2023-05-17T04:33:22.352Z,30.19
2023-05-17T04:34:22.351Z,30.23
2023-05-17T04:35:22.345Z,30.19
2023-05-17T04:36:22.354Z,30.29
2023-05-17T04:37:22.374Z,30.31
2023-05-17T04:38:22.356Z,30.31
2023-05-17T04:39:22.374Z,30.29
2023-05-17T04:40:22.379Z,30.36
2023-05-17T04:41:22.376Z,30.37
2023-05-17T04:42:22.381Z,30.35
2023-05-17T04:43:22.349Z,30.37
2023-05-17T04:44:22.357Z,30.35
2023-05-17T04:45:22.355Z,30.34
2023-05-17T04:46:22.372Z,30.29
2023-05-17T04:47:22.576Z,30.35
2023-05-17T04:48:22.418Z,30.35
2023-05-17T04:49:22.393Z,30.35
2023-05-17T04:50:22.388Z,30.34
2023-05-17T04:51:22.387Z,30.34
2023-05-17T04:52:22.405Z,30.39
2023-05-17T04:53:22.411Z,30.34
2023-05-17T04:54:22.440Z,30.38
2023-05-17T04:55:22.448Z,30.39
2023-05-17T04:56:22.456Z,30.40
2023-05-17T04:57:22.490Z,30.37
2023-05-17T04:58:22.542Z,30.39
2023-05-17T04:59:22.669Z,30.42
2023-05-17T05:00:22.582Z,30.43
2023-05-17T05:01:22.611Z,30.42
2023-05-17T05:02:22.670Z,30.43
2023-05-17T05:03:22.810Z,30.41
2023-05-17T05:04:22.689Z,30.42
2023-05-17T05:05:22.729Z,30.36
2023-05-17T05:06:22.728Z,30.35
2023-05-17T05:07:22.790Z,30.40
2023-05-17T05:08:22.814Z,30.46
2023-05-17T05:09:22.853Z,30.42
2023-05-17T05:10:22.944Z,30.49
2023-05-17T05:11:22.928Z,30.49
2023-05-17T05:12:22.998Z,30.43
2023-05-17T05:13:23.016Z,30.43
2023-05-17T05:14:23.010Z,30.45
2023-05-17T05:15:23.094Z,30.43
2023-05-17T05:16:23.069Z,30.47
2023-05-17T05:17:23.110Z,30.49
2023-05-17T05:18:23.178Z,30.45
2023-05-17T05:19:23.422Z,30.54
2023-05-17T05:20:23.789Z,30.53
2023-05-17T05:21:23.232Z,30.47
2023-05-17T05:22:23.308Z,30.51
2023-05-17T05:23:23.380Z,30.46
2023-05-17T05:24:23.339Z,30.46
2023-05-17T05:25:23.348Z,30.50
2023-05-17T05:26:23.404Z,30.51
2023-05-17T05:27:23.457Z,30.54
2023-05-17T05:28:23.478Z,30.67
2023-05-17T05:29:23.515Z,30.49
2023-05-17T05:30:23.560Z,30.46
2023-05-17T05:31:23.548Z,30.46
2023-05-17T05:32:23.623Z,30.46
2023-05-17T05:33:23.683Z,30.50
2023-05-17T05:34:23.657Z,30.38
2023-05-17T05:35:23.767Z,30.24
2023-05-17T05:36:23.718Z,30.06
2023-05-17T05:37:23.728Z,30.29
2023-05-17T05:38:23.689Z,30.14
2023-05-17T05:39:23.745Z,30.13
2023-05-17T05:40:23.746Z,30.25
2023-05-17T05:41:23.710Z,30.25
2023-05-17T05:42:23.712Z,30.35
2023-05-17T05:43:23.820Z,30.56
2023-05-17T05:44:25.784Z,30.68
2023-05-17T05:45:23.738Z,30.79
2023-05-17T05:46:23.739Z,30.84
2023-05-17T05:47:23.705Z,31.07
2023-05-17T05:48:23.768Z,31.07
2023-05-17T05:49:23.705Z,31.13
2023-05-17T05:50:23.712Z,31.16
2023-05-17T05:51:23.808Z,31.34
2023-05-17T05:52:23.793Z,31.19
2023-05-17T05:53:23.752Z,31.31
2023-05-17T05:54:23.771Z,31.30
2023-05-17T05:55:23.787Z,31.38
2023-05-17T05:56:23.806Z,31.37
2023-05-17T05:57:23.814Z,31.37
2023-05-17T05:58:23.839Z,31.34
2023-05-17T05:59:23.786Z,31.37
2023-05-17T06:00:23.844Z,31.37
2023-05-17T06:01:23.839Z,31.37
2023-05-17T06:02:23.905Z,31.39
2023-05-17T06:03:23.855Z,31.50
2023-05-17T06:04:32.816Z,31.45
2023-05-17T06:05:24.954Z,31.45
2023-05-17T06:06:23.991Z,31.35
2023-05-17T06:07:24.934Z,31.31
2023-05-17T06:08:23.824Z,31.23
2023-05-17T06:09:23.914Z,31.22
2023-05-17T06:10:23.839Z,31.20
2023-05-17T06:11:23.923Z,31.14
2023-05-17T06:12:23.929Z,31.11
2023-05-17T06:13:23.819Z,31.02
2023-05-17T06:14:23.838Z,30.94
2023-05-17T06:15:23.808Z,30.92
2023-05-17T06:16:23.769Z,30.96
2023-05-17T06:17:23.804Z,30.85
2023-05-17T06:18:23.807Z,30.95
2023-05-17T06:19:23.955Z,30.96
2023-05-17T06:20:23.796Z,30.93
2023-05-17T06:21:23.775Z,30.89
2023-05-17T06:22:23.756Z,30.87
2023-05-17T06:23:23.890Z,30.83
2023-05-17T06:24:23.765Z,30.77
2023-05-17T06:25:23.755Z,30.97
2023-05-17T06:26:23.721Z,30.91
2023-05-17T06:27:23.731Z,30.79
2023-05-17T06:28:23.807Z,30.83
2023-05-17T06:29:23.732Z,30.77
2023-05-17T06:30:23.750Z,30.81
2023-05-17T06:31:23.698Z,30.72
2023-05-17T06:32:23.678Z,30.68
2023-05-17T06:33:23.782Z,30.67
2023-05-17T06:34:23.684Z,30.75
2023-05-17T06:35:23.667Z,30.71
2023-05-17T06:36:25.371Z,30.62
2023-05-17T06:37:23.740Z,30.37
2023-05-17T06:38:23.814Z,29.97
2023-05-17T06:39:23.890Z,29.82
2023-05-17T06:40:24.484Z,29.05
2023-05-17T06:41:23.804Z,29.10
2023-05-17T06:42:23.973Z,28.25
2023-05-17T06:43:23.902Z,28.54
2023-05-17T06:44:23.939Z,28.22
2023-05-17T06:45:23.926Z,28.35
2023-05-17T06:46:24.108Z,29.06
2023-05-17T06:47:24.088Z,29.42
2023-05-17T06:48:24.244Z,29.63
2023-05-17T06:49:24.193Z,29.79
2023-05-17T06:50:24.222Z,29.88
2023-05-17T06:51:24.272Z,30.10
2023-05-17T06:52:24.329Z,30.07
2023-05-17T06:53:24.346Z,30.10
2023-05-17T06:54:24.403Z,30.15
2023-05-17T06:55:24.501Z,30.19
2023-05-17T06:56:24.485Z,30.16
2023-05-17T06:57:24.535Z,30.08
2023-05-17T06:58:24.539Z,30.04
2023-05-17T06:59:24.543Z,30.08
2023-05-17T07:00:24.594Z,30.08
2023-05-17T07:01:24.655Z,30.08
2023-05-17T07:02:24.625Z,29.99
2023-05-17T07:03:24.732Z,30.05
2023-05-17T07:04:24.794Z,29.97
2023-05-17T07:05:24.839Z,30.01
2023-05-17T07:06:24.701Z,30.00
2023-05-17T07:07:24.721Z,30.02
2023-05-17T07:08:24.725Z,30.01
2023-05-17T07:09:24.713Z,29.98
2023-05-17T07:10:24.711Z,30.01
2023-05-17T07:11:24.744Z,30.06
2023-05-17T07:12:24.776Z,29.97
2023-05-17T07:13:24.703Z,29.99
2023-05-17T07:14:24.732Z,29.99
2023-05-17T07:15:24.714Z,29.99
2023-05-17T07:16:24.726Z,30.00
2023-05-17T07:17:24.686Z,29.94
2023-05-17T07:18:24.775Z,29.90
2023-05-17T07:19:24.802Z,29.86
2023-05-17T07:20:24.762Z,29.86
2023-05-17T07:21:24.728Z,29.82
2023-05-17T07:22:24.800Z,29.82
2023-05-17T07:23:24.803Z,29.71
2023-05-17T07:24:24.814Z,29.75
2023-05-17T07:25:24.862Z,29.72
2023-05-17T07:26:24.940Z,29.66
2023-05-17T07:27:25.364Z,29.64
2023-05-17T07:28:25.004Z,29.67
2023-05-17T07:29:25.062Z,29.66
2023-05-17T07:30:25.766Z,29.61
2023-05-17T07:31:25.187Z,29.39
2023-05-17T07:32:25.261Z,28.81
2023-05-17T07:33:25.246Z,28.93
2023-05-17T07:34:25.344Z,29.06
2023-05-17T07:35:25.262Z,28.49
2023-05-17T07:36:25.309Z,28.57
2023-05-17T07:37:25.269Z,29.12
2023-05-17T07:38:25.281Z,29.28
2023-05-17T07:39:25.282Z,29.33
2023-05-17T07:40:25.321Z,29.46
2023-05-17T07:41:25.297Z,29.45
2023-05-17T07:42:25.282Z,29.55
2023-05-17T07:43:25.541Z,29.63
2023-05-17T07:44:25.338Z,29.72
2023-05-17T07:45:25.276Z,29.63
2023-05-17T07:46:25.328Z,29.71
2023-05-17T07:47:25.354Z,29.74
2023-05-17T07:48:25.346Z,29.72
2023-05-17T07:49:25.499Z,29.61
2023-05-17T07:50:25.410Z,29.65
2023-05-17T07:51:25.419Z,29.71
2023-05-17T07:52:25.456Z,29.65
2023-05-17T07:53:25.498Z,29.70
2023-05-17T07:54:25.585Z,29.70
2023-05-17T07:55:25.610Z,29.67
2023-05-17T07:56:25.722Z,29.64
2023-05-17T07:57:25.827Z,29.69
2023-05-17T07:58:25.792Z,29.69
2023-05-17T07:59:25.887Z,29.65
2023-05-17T08:00:25.935Z,29.67
2023-05-17T08:01:26.016Z,29.72
2023-05-17T08:02:26.079Z,29.71
2023-05-17T08:03:26.125Z,29.71
2023-05-17T08:04:26.167Z,29.66
2023-05-17T08:05:26.274Z,29.67
2023-05-17T08:06:26.353Z,29.61
2023-05-17T08:07:26.309Z,29.62
2023-05-17T08:08:26.373Z,29.56
2023-05-17T08:09:26.397Z,29.48
2023-05-17T08:10:26.478Z,29.44
2023-05-17T08:11:26.481Z,29.45
2023-05-17T08:12:26.547Z,29.48
2023-05-17T08:13:26.615Z,29.39
2023-05-17T08:14:26.672Z,29.41
2023-05-17T08:15:27.063Z,29.41
2023-05-17T08:16:26.719Z,29.32
2023-05-17T08:17:26.799Z,29.34
2023-05-17T08:18:26.970Z,29.34
2023-05-17T08:19:27.099Z,29.28
2023-05-17T08:20:26.945Z,29.28
2023-05-17T08:21:27.001Z,29.33
2023-05-17T08:22:27.118Z,29.37
2023-05-17T08:23:27.130Z,29.46
2023-05-17T08:24:27.178Z,29.42
2023-05-17T08:25:27.599Z,29.33
2023-05-17T08:26:27.274Z,29.24
2023-05-17T08:27:27.327Z,29.26
2023-05-17T08:28:27.403Z,29.24
2023-05-17T08:29:27.468Z,29.24
2023-05-17T08:30:29.384Z,29.02
2023-05-17T08:31:27.591Z,29.14
2023-05-17T08:32:27.674Z,28.75
2023-05-17T08:33:27.904Z,28.85
2023-05-17T08:34:27.682Z,28.65
2023-05-17T08:35:28.811Z,28.63
2023-05-17T08:36:27.704Z,28.67
2023-05-17T08:37:27.686Z,28.68
2023-05-17T08:38:27.712Z,28.68
2023-05-17T08:39:27.730Z,28.72
2023-05-17T08:40:28.091Z,28.78
2023-05-17T08:41:27.751Z,28.75
2023-05-17T08:42:27.817Z,29.03
2023-05-17T08:43:28.121Z,29.19
2023-05-17T08:44:27.776Z,29.38
2023-05-17T08:45:28.151Z,29.57
2023-05-17T08:46:27.851Z,29.69
2023-05-17T08:47:27.974Z,29.95
2023-05-17T08:48:28.141Z,29.92
2023-05-17T08:49:28.059Z,29.91
2023-05-17T08:50:28.216Z,29.94
2023-05-17T08:51:28.146Z,29.90
2023-05-17T08:52:28.234Z,29.95
2023-05-17T08:53:28.279Z,30.08
2023-05-17T08:54:28.380Z,30.05
2023-05-17T08:55:28.403Z,30.11
2023-05-17T08:56:28.453Z,30.10
2023-05-17T08:57:28.512Z,30.17
2023-05-17T08:58:28.543Z,30.04
2023-05-17T08:59:28.546Z,30.04
2023-05-17T09:00:28.858Z,30.01
2023-05-17T09:01:30.642Z,30.15
2023-05-17T09:02:28.763Z,30.10
2023-05-17T09:03:28.794Z,30.12
2023-05-17T09:04:28.640Z,30.09
2023-05-17T09:05:28.608Z,30.15
2023-05-17T09:06:28.599Z,30.27
2023-05-17T09:07:28.561Z,30.23
2023-05-17T09:08:28.591Z,30.28
2023-05-17T09:09:28.609Z,30.29
2023-05-17T09:10:28.709Z,30.28
2023-05-17T09:11:28.561Z,30.33
2023-05-17T09:12:28.546Z,30.35
2023-05-17T09:13:28.520Z,30.38
2023-05-17T09:14:28.535Z,30.37
2023-05-17T09:15:28.551Z,30.35
2023-05-17T09:16:28.571Z,30.51
2023-05-17T09:17:28.603Z,30.49
2023-05-17T09:18:28.564Z,30.53
2023-05-17T09:19:28.590Z,30.51
2023-05-17T09:20:28.690Z,30.47
2023-05-17T09:21:28.477Z,30.58
2023-05-17T09:22:28.499Z,30.56
2023-05-17T09:23:28.472Z,30.56
2023-05-17T09:24:28.472Z,30.70
2023-05-17T09:25:28.555Z,30.66
2023-05-17T09:26:28.436Z,30.74
2023-05-17T09:27:28.459Z,30.87
2023-05-17T09:28:28.499Z,30.73
2023-05-17T09:29:28.450Z,30.76
2023-05-17T09:30:28.621Z,30.54
2023-05-17T09:31:28.460Z,30.58
2023-05-17T09:32:28.529Z,30.51
2023-05-17T09:33:28.436Z,30.53
2023-05-17T09:34:28.456Z,29.94
2023-05-17T09:35:28.681Z,29.77
2023-05-17T09:36:28.377Z,29.71
2023-05-17T09:37:28.402Z,29.85
2023-05-17T09:38:28.378Z,29.90
2023-05-17T09:39:28.373Z,29.87
2023-05-17T09:40:28.375Z,29.93
2023-05-17T09:41:28.401Z,29.86
2023-05-17T09:42:28.383Z,29.82
2023-05-17T09:43:28.347Z,29.67
2023-05-17T09:44:28.340Z,29.60
2023-05-17T09:45:28.598Z,29.64
2023-05-17T09:46:28.408Z,29.69
2023-05-17T09:47:28.712Z,29.70
2023-05-17T09:48:28.530Z,29.58
2023-05-17T09:49:28.546Z,29.54
2023-05-17T09:50:28.549Z,29.46
2023-05-17T09:51:28.672Z,29.49
2023-05-17T09:52:28.632Z,29.31
2023-05-17T09:53:28.720Z,29.28
2023-05-17T09:54:28.760Z,29.39
2023-05-17T09:55:29.135Z,29.34
2023-05-17T09:56:28.836Z,29.37
2023-05-17T09:57:28.884Z,29.32
2023-05-17T09:58:29.032Z,29.32
2023-05-17T09:59:28.944Z,29.30
2023-05-17T10:00:29.001Z,29.21
2023-05-17T10:01:29.047Z,29.21
2023-05-17T10:02:29.120Z,29.19
2023-05-17T10:03:29.173Z,29.19
2023-05-17T10:04:29.216Z,29.10
2023-05-17T10:05:29.488Z,29.15
2023-05-17T10:06:44.181Z,29.08
2023-05-17T10:07:30.236Z,29.08
2023-05-17T10:08:29.230Z,28.99
2023-05-17T10:09:29.209Z,29.04
2023-05-17T10:10:29.222Z,29.08
2023-05-17T10:11:29.360Z,29.04
2023-05-17T10:12:29.190Z,29.01
2023-05-17T10:13:29.213Z,28.94
2023-05-17T10:14:29.192Z,28.99
2023-05-17T10:15:29.570Z,28.82
2023-05-17T10:16:29.190Z,28.88
2023-05-17T10:17:29.211Z,29.06
2023-05-17T10:18:29.271Z,28.93
2023-05-17T10:19:29.331Z,29.02
2023-05-17T10:20:29.302Z,29.08
2023-05-17T10:21:29.302Z,28.99
2023-05-17T10:22:29.414Z,29.22
2023-05-17T10:23:29.390Z,29.12
2023-05-17T10:24:29.429Z,29.09
2023-05-17T10:25:29.729Z,29.09
2023-05-17T10:26:29.553Z,29.31
2023-05-17T10:27:29.608Z,29.27
2023-05-17T10:28:29.613Z,29.52
2023-05-17T10:29:29.724Z,29.32
2023-05-17T10:30:29.683Z,29.39
2023-05-17T10:31:29.772Z,29.37
2023-05-17T10:32:29.765Z,29.04
2023-05-17T10:33:29.830Z,28.89
2023-05-17T10:34:29.774Z,28.98
2023-05-17T10:35:30.012Z,29.10
2023-05-17T10:36:29.850Z,29.29
2023-05-17T10:37:29.893Z,29.36
2023-05-17T10:38:41.838Z,29.52
2023-05-17T10:39:31.025Z,29.37
2023-05-17T10:40:29.878Z,29.40
2023-05-17T10:41:29.911Z,29.46
2023-05-17T10:42:29.892Z,29.53
2023-05-17T10:43:29.904Z,29.45
2023-05-17T10:44:29.883Z,29.47
2023-05-17T10:45:30.259Z,29.46
2023-05-17T10:46:29.881Z,29.53
2023-05-17T10:47:29.916Z,29.46
2023-05-17T10:48:29.933Z,29.37
2023-05-17T10:49:29.979Z,29.30
2023-05-17T10:50:30.095Z,29.45
2023-05-17T10:51:29.838Z,29.45
2023-05-17T10:52:29.828Z,29.37
2023-05-17T10:53:29.840Z,29.32
2023-05-17T10:54:29.804Z,29.26
2023-05-17T10:55:29.850Z,29.28
2023-05-17T10:56:29.848Z,29.31
2023-05-17T10:57:33.127Z,29.23
2023-05-17T10:58:30.785Z,29.26
2023-05-17T10:59:29.846Z,29.24
2023-05-17T11:00:29.948Z,29.23
2023-05-17T11:01:29.790Z,29.20
2023-05-17T11:02:29.784Z,29.34
2023-05-17T11:03:29.803Z,29.25
2023-05-17T11:04:29.760Z,29.26
2023-05-17T11:05:29.864Z,29.25
2023-05-17T11:06:29.757Z,29.28
2023-05-17T11:07:29.847Z,29.16
2023-05-17T11:08:29.729Z,29.26
2023-05-17T11:09:29.732Z,29.37
2023-05-17T11:10:29.915Z,29.41
2023-05-17T11:11:29.732Z,29.48
2023-05-17T11:12:31.239Z,29.56
2023-05-17T11:13:29.667Z,29.53
2023-05-17T11:14:31.107Z,29.45
2023-05-17T11:15:29.832Z,29.48
2023-05-17T11:16:29.809Z,29.57
2023-05-17T11:17:29.750Z,29.58
2023-05-17T11:18:31.978Z,29.50
2023-05-17T11:19:29.807Z,29.41
2023-05-17T11:20:29.864Z,29.26
2023-05-17T11:21:29.680Z,29.07
2023-05-17T11:22:29.641Z,29.03
2023-05-17T11:23:29.674Z,29.01
2023-05-17T11:24:29.685Z,28.72
2023-05-17T11:25:29.629Z,28.70
2023-05-17T11:26:29.675Z,28.71
2023-05-17T11:27:29.657Z,28.65
2023-05-17T11:28:29.582Z,28.59
2023-05-17T11:29:29.612Z,28.29
2023-05-17T11:30:29.776Z,28.40
2023-05-17T11:31:29.576Z,28.25
2023-05-17T11:32:29.661Z,28.32
2023-05-17T11:33:33.638Z,28.22
2023-05-17T11:34:29.576Z,28.12
2023-05-17T11:35:29.557Z,28.19
2023-05-17T11:36:29.558Z,28.15
2023-05-17T11:37:29.586Z,28.12
2023-05-17T11:38:29.543Z,28.01
2023-05-17T11:39:29.535Z,27.96
2023-05-17T11:40:29.642Z,28.01
2023-05-17T11:41:29.556Z,27.96
2023-05-17T11:42:29.494Z,27.76
2023-05-17T11:43:29.576Z,27.89
2023-05-17T11:44:29.551Z,27.94
2023-05-17T11:45:29.637Z,27.88
2023-05-17T11:46:29.527Z,27.87
2023-05-17T11:47:29.603Z,27.82
2023-05-17T11:48:29.596Z,27.74
2023-05-17T11:50:29.635Z,27.79
2023-05-17T11:51:29.446Z,27.77
2023-05-17T11:52:29.528Z,27.89
2023-05-17T11:53:29.416Z,27.89
2023-05-17T11:54:29.438Z,27.92
2023-05-17T11:55:29.595Z,27.99
2023-05-17T11:56:42.321Z,27.95
2023-05-17T11:57:30.430Z,27.98
2023-05-17T11:58:29.405Z,28.12
2023-05-17T11:59:29.408Z,28.02
2023-05-17T12:00:29.611Z,28.08
2023-05-17T12:01:29.386Z,28.07
2023-05-17T12:02:29.420Z,28.11
2023-05-17T12:03:29.347Z,28.14
2023-05-17T12:04:30.671Z,28.14
2023-05-17T12:05:29.427Z,28.15
2023-05-17T12:06:29.395Z,28.14
2023-05-17T12:07:29.380Z,28.22
2023-05-17T12:08:29.334Z,28.17
2023-05-17T12:09:29.312Z,28.15
2023-05-17T12:10:30.957Z,28.23
2023-05-17T12:11:29.332Z,28.25
2023-05-17T12:12:29.309Z,28.30
2023-05-17T12:13:29.293Z,28.30
2023-05-17T12:14:29.297Z,28.22
2023-05-17T12:15:29.290Z,28.22
2023-05-17T12:16:29.297Z,28.26
2023-05-17T12:17:29.337Z,28.30
2023-05-17T12:18:29.344Z,28.30
2023-05-17T12:19:29.311Z,28.25
2023-05-17T12:20:29.513Z,28.29
2023-05-17T12:21:29.246Z,28.31
2023-05-17T12:22:29.253Z,28.25
2023-05-17T12:23:29.268Z,28.30
2023-05-17T12:24:29.246Z,28.37
2023-05-17T12:25:29.222Z,28.37
2023-05-17T12:26:29.205Z,28.42
2023-05-17T12:27:29.240Z,28.40
2023-05-17T12:28:29.199Z,28.41
2023-05-17T12:29:29.169Z,28.38
2023-05-17T12:30:29.440Z,28.37
2023-05-17T12:31:29.318Z,28.42
2023-05-17T12:32:29.194Z,28.45
2023-05-17T12:33:29.268Z,28.38
2023-05-17T12:34:29.148Z,28.45
2023-05-17T12:35:29.156Z,28.49
2023-05-17T12:36:29.253Z,28.50
2023-05-17T12:37:29.137Z,28.54
2023-05-17T12:38:29.159Z,28.51
2023-05-17T12:39:29.112Z,28.49
2023-05-17T12:40:29.355Z,28.53
2023-05-17T12:41:29.135Z,28.50
2023-05-17T12:42:29.136Z,28.54
2023-05-17T12:43:29.109Z,28.54
2023-05-17T12:44:29.116Z,28.54
2023-05-17T12:45:29.095Z,28.58
2023-05-17T12:46:29.110Z,28.59
2023-05-17T12:47:29.140Z,28.62
2023-05-17T12:48:29.116Z,28.57
2023-05-17T12:49:29.182Z,28.57
2023-05-17T12:50:29.259Z,28.58
2023-05-17T12:51:29.053Z,28.59
2023-05-17T12:52:29.021Z,28.61
2023-05-17T12:53:29.030Z,28.62